createdAt,value
2018-01-07T00:00:22.612Z,58.24
2018-01-07T00:01:22.621Z,58.71
2018-01-07T00:02:22.628Z,59.00
2018-01-07T00:03:22.640Z,59.56
2018-01-07T00:04:22.649Z,59.09
2018-01-07T00:05:22.661Z,59.09
2018-01-07T00:06:22.707Z,58.33
2018-01-07T00:07:22.673Z,56.82
2018-01-07T00:08:22.676Z,56.15
2018-01-07T00:09:22.686Z,56.34
2018-01-07T00:10:22.700Z,57.20
2018-01-07T00:11:22.703Z,56.91
2018-01-07T00:12:22.713Z,58.24
2018-01-07T00:13:22.722Z,58.62
2018-01-07T00:14:22.726Z,59.09
2018-01-07T00:15:22.738Z,59.38
2018-01-07T00:16:22.746Z,58.14
2018-01-07T00:17:22.754Z,57.39
2018-01-07T00:18:22.758Z,57.20
2018-01-07T00:19:22.765Z,57.20
2018-01-07T00:20:22.778Z,56.06
2018-01-07T00:21:22.787Z,56.06
2018-01-07T00:22:22.791Z,55.96
2018-01-07T00:23:22.804Z,56.06
2018-01-07T00:24:22.811Z,55.30
2018-01-07T00:25:22.824Z,56.15
2018-01-07T00:26:22.828Z,57.10
2018-01-07T00:27:22.830Z,58.33
2018-01-07T00:28:22.839Z,57.95
2018-01-07T00:29:22.853Z,57.95
2018-01-07T00:30:22.863Z,57.57
2018-01-07T00:31:22.864Z,57.39
2018-01-07T00:32:22.877Z,56.72
2018-01-07T00:33:22.891Z,56.34
2018-01-07T00:34:22.887Z,56.44
2018-01-07T00:35:22.900Z,55.68
2018-01-07T00:36:22.903Z,56.91
2018-01-07T00:37:22.912Z,58.24
2018-01-07T00:38:22.921Z,59.84
2018-01-07T00:39:22.934Z,59.75
2018-01-07T00:40:22.939Z,60.22
2018-01-07T00:41:22.950Z,60.70
2018-01-07T00:42:22.954Z,60.51
2018-01-07T00:43:22.966Z,59.56
2018-01-07T00:44:22.970Z,59.56
2018-01-07T00:45:22.977Z,59.44
2018-01-07T00:46:22.987Z,59.91
2018-01-07T00:47:22.994Z,59.16
2018-01-07T00:48:23.007Z,59.53
2018-01-07T00:49:23.011Z,59.53
2018-01-07T00:50:23.027Z,59.25
2018-01-07T00:51:23.032Z,59.63
2018-01-07T00:52:23.040Z,60.19
2018-01-07T00:53:23.043Z,59.72
2018-01-07T00:54:23.056Z,58.49
2018-01-07T00:55:23.065Z,57.92
2018-01-07T00:56:23.072Z,58.78
2018-01-07T00:57:23.087Z,59.34
2018-01-07T00:58:23.083Z,59.91
2018-01-07T00:59:23.097Z,59.72
2018-01-07T01:00:23.104Z,59.63
2018-01-07T01:01:23.108Z,59.72
2018-01-07T01:02:23.117Z,59.06
2018-01-07T01:03:23.123Z,59.16
2018-01-07T01:04:23.137Z,59.34
2018-01-07T01:05:23.144Z,59.53
2018-01-07T01:06:23.149Z,58.97
2018-01-07T01:07:23.154Z,58.97
2018-01-07T01:08:23.174Z,58.97
2018-01-07T01:09:23.178Z,59.81
2018-01-07T01:10:23.186Z,60.48
2018-01-07T01:11:23.195Z,60.38
2018-01-07T01:12:23.196Z,59.34
2018-01-07T01:13:23.203Z,59.25
2018-01-07T01:14:23.211Z,57.83
2018-01-07T01:15:23.223Z,57.83
2018-01-07T01:16:23.231Z,58.68
2018-01-07T01:17:23.236Z,60.00
2018-01-07T01:18:23.245Z,60.77
2018-01-07T01:19:23.251Z,61.15
2018-01-07T01:20:23.263Z,61.80
2018-01-07T01:21:23.266Z,62.18
2018-01-07T01:22:23.275Z,61.80
2018-01-07T01:23:23.283Z,61.80
2018-01-07T01:24:23.290Z,61.33
2018-01-07T01:25:23.299Z,61.71
2018-01-07T01:26:23.307Z,61.99
2018-01-07T01:28:23.399Z,61.99
2018-01-07T01:29:23.335Z,61.05
2018-01-07T01:30:23.343Z,61.43
2018-01-07T01:31:23.345Z,60.48
2018-01-07T01:32:23.359Z,59.25
2018-01-07T01:33:23.368Z,59.16
2018-01-07T01:34:23.369Z,59.16
2018-01-07T01:35:23.385Z,59.16
2018-01-07T01:36:23.385Z,58.87
2018-01-07T01:37:23.397Z,59.34
2018-01-07T01:38:23.406Z,59.53
2018-01-07T01:39:23.420Z,59.63
2018-01-07T01:40:23.423Z,60.58
2018-01-07T01:41:23.435Z,60.48
2018-01-07T01:42:23.439Z,60.77
2018-01-07T01:43:23.451Z,61.15
2018-01-07T01:44:23.460Z,61.33
2018-01-07T01:45:23.460Z,61.99
2018-01-07T01:46:23.470Z,61.99
2018-01-07T01:47:23.483Z,62.09
2018-01-07T01:48:23.486Z,62.28
2018-01-07T01:49:23.491Z,62.18
2018-01-07T01:50:23.508Z,62.37
2018-01-07T01:51:23.509Z,62.47
2018-01-07T01:52:23.521Z,61.33
2018-01-07T01:53:23.525Z,60.58
2018-01-07T01:54:23.534Z,60.10
2018-01-07T01:55:23.545Z,59.25
2018-01-07T01:56:23.556Z,59.25
2018-01-07T01:57:23.556Z,59.44
2018-01-07T01:58:23.567Z,60.00
2018-01-07T01:59:23.574Z,60.48
2018-01-07T02:00:23.581Z,59.63
2018-01-07T02:01:23.592Z,59.09
2018-01-07T02:02:23.600Z,59.81
2018-01-07T02:03:23.601Z,59.16
2018-01-07T02:04:23.611Z,60.03
2018-01-07T02:05:23.621Z,59.72
2018-01-07T02:06:23.627Z,60.48
2018-01-07T02:07:23.639Z,60.67
2018-01-07T02:08:23.647Z,61.05
2018-01-07T02:09:23.651Z,60.29
2018-01-07T02:10:23.658Z,60.58
2018-01-07T02:11:23.666Z,60.00
2018-01-07T02:12:23.674Z,59.63
2018-01-07T02:13:23.686Z,60.00
2018-01-07T02:14:23.690Z,60.48
2018-01-07T02:15:23.699Z,60.67
2018-01-07T02:16:23.705Z,60.19
2018-01-07T02:17:23.713Z,60.19
2018-01-07T02:18:23.726Z,60.96
2018-01-07T02:19:23.735Z,60.77
2018-01-07T02:20:23.744Z,60.29
2018-01-07T02:21:23.745Z,60.58
2018-01-07T02:22:23.762Z,60.67
2018-01-07T02:23:23.765Z,61.43
2018-01-07T02:24:23.794Z,60.86
2018-01-07T02:25:23.778Z,61.05
2018-01-07T02:26:23.786Z,61.80
2018-01-07T02:27:23.798Z,62.66
2018-01-07T02:28:23.801Z,62.85
2018-01-07T02:29:23.813Z,62.56
2018-01-07T02:30:23.821Z,62.75
2018-01-07T02:31:23.829Z,62.75
2018-01-07T02:32:23.837Z,62.56
2018-01-07T02:33:23.853Z,62.18
2018-01-07T02:34:23.849Z,62.66
2018-01-07T02:35:23.863Z,62.37
2018-01-07T02:36:23.871Z,61.99
2018-01-07T02:37:23.878Z,62.37
2018-01-07T02:38:23.882Z,62.18
2018-01-07T02:39:23.887Z,62.37
2018-01-07T02:40:23.896Z,62.37
2018-01-07T02:41:23.908Z,62.28
2018-01-07T02:42:23.917Z,62.28
2018-01-07T02:43:23.918Z,61.80
2018-01-07T02:44:23.932Z,62.09
2018-01-07T02:45:23.938Z,61.80
2018-01-07T02:46:23.945Z,62.09
2018-01-07T02:47:23.950Z,61.90
2018-01-07T02:48:23.959Z,62.18
2018-01-07T02:49:23.967Z,62.37
2018-01-07T02:50:23.978Z,62.37
2018-01-07T02:51:23.987Z,62.75
2018-01-07T02:52:23.997Z,62.66
2018-01-07T02:53:24.000Z,62.75
2018-01-07T02:54:24.006Z,63.42
2018-01-07T02:55:24.020Z,63.60
2018-01-07T02:56:24.020Z,62.18
2018-01-07T02:57:24.030Z,62.56
2018-01-07T02:58:24.038Z,61.90
2018-01-07T02:59:24.044Z,61.99
2018-01-07T03:00:24.057Z,62.09
2018-01-07T03:01:24.067Z,62.94
2018-01-07T03:02:24.076Z,61.99
2018-01-07T03:03:24.082Z,62.37
2018-01-07T03:04:24.089Z,62.18
2018-01-07T03:05:24.089Z,61.05
2018-01-07T03:06:24.101Z,60.67
2018-01-07T03:07:24.107Z,60.29
2018-01-07T03:08:24.114Z,60.48
2018-01-07T03:09:24.123Z,59.44
2018-01-07T03:10:24.136Z,58.97
2018-01-07T03:11:24.142Z,58.78
2018-01-07T03:12:24.144Z,57.83
2018-01-07T03:13:24.160Z,58.97
2018-01-07T03:14:24.167Z,58.78
2018-01-07T03:15:24.174Z,58.97
2018-01-07T03:16:24.183Z,57.83
2018-01-07T03:17:24.189Z,58.87
2018-01-07T03:18:24.198Z,59.44
2018-01-07T03:19:24.199Z,59.25
2018-01-07T03:20:24.208Z,60.58
2018-01-07T03:21:24.215Z,60.29
2018-01-07T03:22:24.230Z,60.19
2018-01-07T03:23:24.235Z,59.63
2018-01-07T03:24:24.244Z,59.72
2018-01-07T03:25:24.247Z,59.53
2018-01-07T03:26:24.261Z,59.44
2018-01-07T03:27:24.268Z,59.16
2018-01-07T03:28:24.275Z,58.87
2018-01-07T03:29:24.278Z,58.68
2018-01-07T03:30:24.288Z,58.30
2018-01-07T03:31:24.294Z,58.97
2018-01-07T03:32:24.306Z,59.06
2018-01-07T03:33:24.314Z,58.97
2018-01-07T03:34:24.321Z,58.68
2018-01-07T03:35:24.333Z,58.11
2018-01-07T03:36:24.331Z,57.35
2018-01-07T03:37:24.344Z,57.07
2018-01-07T03:38:24.352Z,56.60
2018-01-07T03:39:24.354Z,57.07
2018-01-07T03:40:24.371Z,57.35
2018-01-07T03:41:24.376Z,58.02
2018-01-07T03:42:24.386Z,59.06
2018-01-07T03:43:24.391Z,60.48
2018-01-07T03:44:24.402Z,60.48
2018-01-07T03:45:24.405Z,59.81
2018-01-07T03:46:24.411Z,59.63
2018-01-07T03:47:24.420Z,59.81
2018-01-07T03:48:24.432Z,59.72
2018-01-07T03:49:24.432Z,59.53
2018-01-07T03:50:24.445Z,59.16
2018-01-07T03:51:24.454Z,59.16
2018-01-07T03:52:24.458Z,58.97
2018-01-07T03:53:24.468Z,59.34
2018-01-07T03:54:24.475Z,59.53
2018-01-07T03:55:24.484Z,57.26
2018-01-07T03:56:24.487Z,56.22
2018-01-07T03:57:24.500Z,57.54
2018-01-07T03:58:24.511Z,58.40
2018-01-07T03:59:24.508Z,58.68
2018-01-07T04:00:24.517Z,57.92
2018-01-07T04:01:24.524Z,56.79
2018-01-07T04:02:24.538Z,56.79
2018-01-07T04:03:24.550Z,56.98
2018-01-07T04:04:24.547Z,57.64
2018-01-07T04:05:24.561Z,57.76
2018-01-07T04:06:24.564Z,57.54
2018-01-07T04:07:24.577Z,57.20
2018-01-07T04:08:24.583Z,56.60
2018-01-07T04:09:24.589Z,56.15
2018-01-07T04:10:24.600Z,56.41
2018-01-07T04:11:24.607Z,56.32
2018-01-07T04:12:24.616Z,56.06
2018-01-07T04:13:24.622Z,55.30
2018-01-07T04:14:24.630Z,56.15
2018-01-07T04:15:24.632Z,55.11
2018-01-07T04:16:24.640Z,54.74
2018-01-07T04:17:24.652Z,55.21
2018-01-07T04:18:24.662Z,55.30
2018-01-07T04:19:24.670Z,55.58
2018-01-07T04:20:24.671Z,54.74
2018-01-07T04:21:24.679Z,55.37
2018-01-07T04:22:24.694Z,55.84
2018-01-07T04:23:24.701Z,56.22
2018-01-07T04:24:24.708Z,56.41
2018-01-07T04:25:24.717Z,56.22
2018-01-07T04:26:24.723Z,56.03
2018-01-07T04:27:24.731Z,56.60
2018-01-07T04:28:24.778Z,54.71
2018-01-07T04:29:24.746Z,56.15
2018-01-07T04:30:24.752Z,56.63
2018-01-07T04:31:24.757Z,56.82
2018-01-07T04:32:24.769Z,57.86
2018-01-07T04:33:24.777Z,58.90
2018-01-07T04:34:24.780Z,59.09
2018-01-07T04:35:24.792Z,59.47
2018-01-07T04:36:24.796Z,59.75
2018-01-07T04:37:24.809Z,59.44
2018-01-07T04:38:24.816Z,60.00
2018-01-07T04:39:24.824Z,59.53
2018-01-07T04:40:24.827Z,59.44
2018-01-07T04:41:24.840Z,58.97
2018-01-07T04:42:24.847Z,59.44
2018-01-07T04:43:24.855Z,58.87
2018-01-07T04:44:24.858Z,59.06
2018-01-07T04:45:24.871Z,58.78
2018-01-07T04:46:24.880Z,58.40
2018-01-07T04:47:24.880Z,59.06
2018-01-07T04:48:24.892Z,58.21
2018-01-07T04:49:24.902Z,57.35
2018-01-07T04:50:24.909Z,57.35
2018-01-07T04:51:24.910Z,57.64
2018-01-07T04:52:24.919Z,57.73
2018-01-07T04:53:24.928Z,58.40
2018-01-07T04:54:24.935Z,58.11
2018-01-07T04:55:24.947Z,57.54
2018-01-07T04:56:24.949Z,57.54
2018-01-07T04:57:24.959Z,57.92
2018-01-07T04:58:24.970Z,57.35
2018-01-07T04:59:24.977Z,57.54
2018-01-07T05:00:24.991Z,57.07
2018-01-07T05:01:24.993Z,57.64
2018-01-07T05:02:25.005Z,57.64
2018-01-07T05:03:25.010Z,55.65
2018-01-07T05:04:25.016Z,54.04
2018-01-07T05:05:25.020Z,55.27
2018-01-07T05:06:25.035Z,54.80
2018-01-07T05:07:25.034Z,54.74
2018-01-07T05:08:25.047Z,55.58
2018-01-07T05:09:25.050Z,55.49
2018-01-07T05:10:25.065Z,55.37
2018-01-07T05:11:25.077Z,55.49
2018-01-07T05:12:25.080Z,56.25
2018-01-07T05:13:25.081Z,56.53
2018-01-07T05:14:25.089Z,56.32
2018-01-07T05:15:25.095Z,56.70
2018-01-07T05:16:25.103Z,56.51
2018-01-07T05:17:25.111Z,56.41
2018-01-07T05:18:25.119Z,56.32
2018-01-07T05:19:25.131Z,55.27
2018-01-07T05:20:25.141Z,54.74
2018-01-07T05:21:25.141Z,53.95
2018-01-07T05:22:25.157Z,53.59
2018-01-07T05:23:25.157Z,53.97
2018-01-07T05:24:25.165Z,54.26
2018-01-07T05:25:25.173Z,54.16
2018-01-07T05:26:25.180Z,54.83
2018-01-07T05:27:25.187Z,54.93
2018-01-07T05:28:25.198Z,55.58
2018-01-07T05:29:25.204Z,56.06
2018-01-07T05:30:25.218Z,56.41
2018-01-07T05:31:25.223Z,56.44
2018-01-07T05:32:25.227Z,56.32
2018-01-07T05:33:25.234Z,57.64
2018-01-07T05:34:25.247Z,58.11
2018-01-07T05:35:25.255Z,58.21
2018-01-07T05:36:25.263Z,57.73
2018-01-07T05:37:25.266Z,57.64
2018-01-07T05:38:25.282Z,57.45
2018-01-07T05:39:25.286Z,57.07
2018-01-07T05:40:25.295Z,55.94
2018-01-07T05:41:25.296Z,56.13
2018-01-07T05:42:25.309Z,54.64
2018-01-07T05:43:25.316Z,55.94
2018-01-07T05:44:25.324Z,55.56
2018-01-07T05:45:25.330Z,55.37
2018-01-07T05:46:25.334Z,54.71
2018-01-07T05:47:25.342Z,54.33
2018-01-07T05:48:25.354Z,53.59
2018-01-07T05:49:25.362Z,52.75
2018-01-07T05:50:25.373Z,52.75
2018-01-07T05:51:25.379Z,53.97
2018-01-07T05:52:25.385Z,54.83
2018-01-07T05:53:25.386Z,55.68
2018-01-07T05:54:25.402Z,56.06
2018-01-07T05:55:25.402Z,56.34
2018-01-07T05:56:25.413Z,56.91
2018-01-07T05:57:25.426Z,57.07
2018-01-07T05:58:25.427Z,57.26
2018-01-07T05:59:25.431Z,57.92
2018-01-07T06:00:25.440Z,58.02
2018-01-07T06:01:25.448Z,58.21
2018-01-07T06:02:25.462Z,58.02
2018-01-07T06:03:25.462Z,58.78
2018-01-07T06:04:25.474Z,58.30
2018-01-07T06:05:25.478Z,57.92
2018-01-07T06:06:25.486Z,57.45
2018-01-07T06:07:25.500Z,58.30
2018-01-07T06:08:25.501Z,58.11
2018-01-07T06:09:25.508Z,58.87
2018-01-07T06:10:25.516Z,58.11
2018-01-07T06:11:25.530Z,57.64
2018-01-07T06:12:25.536Z,57.07
2018-01-07T06:13:25.546Z,56.51
2018-01-07T06:14:25.557Z,56.41
2018-01-07T06:15:25.561Z,55.46
2018-01-07T06:16:25.567Z,54.52
2018-01-07T06:17:25.577Z,54.33
2018-01-07T06:18:25.584Z,54.71
2018-01-07T06:19:25.585Z,55.68
2018-01-07T06:20:25.600Z,56.06
2018-01-07T06:21:25.601Z,56.53
2018-01-07T06:22:25.610Z,55.30
2018-01-07T06:23:25.617Z,54.83
2018-01-07T06:24:25.629Z,54.83
2018-01-07T06:25:25.639Z,55.40
2018-01-07T06:26:25.640Z,55.40
2018-01-07T06:27:25.648Z,55.49
2018-01-07T06:28:25.659Z,55.40
2018-01-07T06:29:25.669Z,55.68
2018-01-07T06:30:25.672Z,56.25
2018-01-07T06:31:25.683Z,56.34
2018-01-07T06:32:25.693Z,56.72
2018-01-07T06:33:25.695Z,56.91
2018-01-07T06:34:25.701Z,56.25
2018-01-07T06:35:25.710Z,56.44
2018-01-07T06:36:25.719Z,56.60
2018-01-07T06:37:25.726Z,56.82
2018-01-07T06:38:25.741Z,56.79
2018-01-07T06:39:25.741Z,57.73
2018-01-07T06:40:25.749Z,57.35
2018-01-07T06:41:25.756Z,57.26
2018-01-07T06:42:25.765Z,57.45
2018-01-07T06:43:25.772Z,57.73
2018-01-07T06:44:25.786Z,57.35
2018-01-07T06:45:25.794Z,57.07
2018-01-07T06:46:25.796Z,56.51
2018-01-07T06:47:25.802Z,56.51
2018-01-07T06:48:25.811Z,56.03
2018-01-07T06:49:25.824Z,56.41
2018-01-07T06:50:25.832Z,56.98
2018-01-07T06:51:25.835Z,57.45
2018-01-07T06:52:25.847Z,58.02
2018-01-07T06:53:25.854Z,58.30
2018-01-07T06:54:25.862Z,58.59
2018-01-07T06:55:25.864Z,58.97
2018-01-07T06:56:25.876Z,58.87
2018-01-07T06:57:25.887Z,59.53
2018-01-07T06:58:25.896Z,59.25
2018-01-07T06:59:25.900Z,58.97
2018-01-07T07:00:25.943Z,59.44
2018-01-07T07:01:25.910Z,59.44
2018-01-07T07:02:25.924Z,59.16
2018-01-07T07:03:25.926Z,59.44
2018-01-07T07:04:25.938Z,59.44
2018-01-07T07:05:25.945Z,59.44
2018-01-07T07:06:25.951Z,59.34
2018-01-07T07:07:25.956Z,59.16
2018-01-07T07:08:25.964Z,59.16
2018-01-07T07:09:25.976Z,58.68
2018-01-07T07:10:25.984Z,58.87
2018-01-07T07:11:25.993Z,58.30
2018-01-07T07:12:25.999Z,57.54
2018-01-07T07:13:26.012Z,56.60
2018-01-07T07:14:26.057Z,56.13
2018-01-07T07:15:26.020Z,54.74
2018-01-07T07:16:26.027Z,54.35
2018-01-07T07:17:26.038Z,54.93
2018-01-07T07:18:26.041Z,56.15
2018-01-07T07:19:26.046Z,56.06
2018-01-07T07:20:26.055Z,56.53
2018-01-07T07:21:26.063Z,56.63
2018-01-07T07:22:26.071Z,56.63
2018-01-07T07:23:26.084Z,56.63
2018-01-07T07:24:26.086Z,56.44
2018-01-07T07:25:26.097Z,56.91
2018-01-07T07:26:26.107Z,57.20
2018-01-07T07:27:26.108Z,57.29
2018-01-07T07:28:26.118Z,57.35
2018-01-07T07:29:26.129Z,57.48
2018-01-07T07:30:26.132Z,57.76
2018-01-07T07:31:26.141Z,58.24
2018-01-07T07:32:26.147Z,57.57
2018-01-07T07:33:26.153Z,57.48
2018-01-07T07:34:26.163Z,57.57
2018-01-07T07:35:26.174Z,58.14
2018-01-07T07:36:26.178Z,57.95
2018-01-07T07:37:26.190Z,57.95
2018-01-07T07:38:26.193Z,57.95
2018-01-07T07:39:26.199Z,57.95
2018-01-07T07:40:26.211Z,57.20
2018-01-07T07:41:26.221Z,57.39
2018-01-07T07:42:26.231Z,57.95
2018-01-07T07:43:26.232Z,59.00
2018-01-07T07:44:26.238Z,58.24
2018-01-07T07:45:26.248Z,58.62
2018-01-07T07:46:26.256Z,59.00
2018-01-07T07:47:26.266Z,58.81
2018-01-07T07:48:26.272Z,58.81
2018-01-07T07:49:26.284Z,59.28
2018-01-07T07:50:26.288Z,59.84
2018-01-07T07:51:26.298Z,59.47
2018-01-07T07:52:26.306Z,59.75
2018-01-07T07:53:26.314Z,59.84
2018-01-07T07:54:26.323Z,59.56
2018-01-07T07:55:26.326Z,59.56
2018-01-07T07:56:26.332Z,56.91
2018-01-07T07:57:26.350Z,56.06
2018-01-07T07:58:26.353Z,55.96
2018-01-07T07:59:26.354Z,56.53
2018-01-07T08:00:26.363Z,57.57
2018-01-07T08:01:26.387Z,56.15
2018-01-07T08:02:26.387Z,56.15
2018-01-07T08:03:26.395Z,57.01
2018-01-07T08:04:26.402Z,57.20
2018-01-07T08:05:26.405Z,56.72
2018-01-07T08:06:26.412Z,57.48
2018-01-07T08:07:26.426Z,57.86
2018-01-07T08:08:26.432Z,57.86
2018-01-07T08:09:26.443Z,58.52
2018-01-07T08:10:26.444Z,58.62
2018-01-07T08:11:26.456Z,57.39
2018-01-07T08:12:26.458Z,57.39
2018-01-07T08:13:26.468Z,57.39
2018-01-07T08:14:26.482Z,57.67
2018-01-07T08:15:26.490Z,57.20
2018-01-07T08:16:26.491Z,57.67
2018-01-07T08:17:26.505Z,58.05
2018-01-07T08:18:26.508Z,57.48
2018-01-07T08:19:26.514Z,57.76
2018-01-07T08:20:26.523Z,57.86
2018-01-07T08:21:26.538Z,58.14
2018-01-07T08:22:26.539Z,58.14
2018-01-07T08:23:26.547Z,58.71
2018-01-07T08:24:26.556Z,58.84
2018-01-07T08:25:26.565Z,58.55
2018-01-07T08:26:26.573Z,59.59
2018-01-07T08:27:26.581Z,59.50
2018-01-07T08:28:26.589Z,58.93
2018-01-07T08:29:26.597Z,58.07
2018-01-07T08:30:26.612Z,57.70
2018-01-07T08:31:26.619Z,57.79
2018-01-07T08:32:26.628Z,58.07
2018-01-07T08:33:26.638Z,58.36
2018-01-07T08:34:26.645Z,57.51
2018-01-07T08:35:26.651Z,57.60
2018-01-07T08:36:26.661Z,57.13
2018-01-07T08:37:26.669Z,57.04
2018-01-07T08:38:26.683Z,56.94
2018-01-07T08:39:26.687Z,57.42
2018-01-07T08:40:26.694Z,57.23
2018-01-07T08:41:26.704Z,56.94
2018-01-07T08:42:26.712Z,57.70
2018-01-07T08:43:26.720Z,57.51
2018-01-07T08:44:26.731Z,57.42
2018-01-07T08:45:26.741Z,56.75
2018-01-07T08:46:26.746Z,57.25
2018-01-07T08:47:26.748Z,57.06
2018-01-07T08:48:26.762Z,56.78
2018-01-07T08:49:26.772Z,56.30
2018-01-07T08:50:26.782Z,55.36
2018-01-07T08:51:26.793Z,54.98
2018-01-07T08:52:26.802Z,56.59
2018-01-07T08:53:26.801Z,56.68
2018-01-07T08:54:26.811Z,57.64
2018-01-07T08:55:26.824Z,56.21
2018-01-07T08:56:26.834Z,54.60
2018-01-07T08:57:26.843Z,55.45
2018-01-07T08:58:26.853Z,56.40
2018-01-07T08:59:26.860Z,56.40
2018-01-07T09:00:26.870Z,56.68
2018-01-07T09:01:26.879Z,57.54
2018-01-07T09:02:26.887Z,58.29
2018-01-07T09:03:26.890Z,58.01
2018-01-07T09:04:26.901Z,58.20
2018-01-07T09:05:26.918Z,58.20
2018-01-07T09:06:26.947Z,58.39
2018-01-07T09:07:26.932Z,58.01
2018-01-07T09:08:26.948Z,58.20
2018-01-07T09:09:26.947Z,58.20
2018-01-07T09:10:26.954Z,57.73
2018-01-07T09:11:26.968Z,56.97
2018-01-07T09:12:26.975Z,58.01
2018-01-07T09:13:26.997Z,58.39
2018-01-07T09:14:26.993Z,59.25
2018-01-07T09:15:27.006Z,58.01
2018-01-07T09:16:27.012Z,57.82
2018-01-07T09:17:27.021Z,57.73
2018-01-07T09:18:27.033Z,58.29
2018-01-07T09:19:27.045Z,58.39
2018-01-07T09:20:27.055Z,57.92
2018-01-07T09:21:27.060Z,57.73
2018-01-07T09:22:27.069Z,57.44
2018-01-07T09:23:27.080Z,57.54
2018-01-07T09:24:27.091Z,57.44
2018-01-07T09:25:27.103Z,57.06
2018-01-07T09:26:27.112Z,56.49
2018-01-07T09:27:27.114Z,56.12
2018-01-07T09:28:27.127Z,55.38
2018-01-07T09:29:27.137Z,54.34
2018-01-07T09:30:27.143Z,54.82
2018-01-07T09:31:27.156Z,55.48
2018-01-07T09:32:27.166Z,54.63
2018-01-07T09:33:27.178Z,53.87
2018-01-07T09:34:27.178Z,53.87
2018-01-07T09:35:27.195Z,53.58
2018-01-07T09:36:27.205Z,52.37
2018-01-07T09:37:27.221Z,52.95
2018-01-07T09:38:27.220Z,54.56
2018-01-07T09:39:27.233Z,55.51
2018-01-07T09:40:27.241Z,54.85
2018-01-07T09:41:27.249Z,54.37
2018-01-07T09:42:27.262Z,55.06
2018-01-07T09:43:27.271Z,55.91
2018-01-07T09:44:27.282Z,56.42
2018-01-07T09:45:27.292Z,56.13
2018-01-07T09:46:27.297Z,55.09
2018-01-07T09:47:27.311Z,54.71
2018-01-07T09:48:27.330Z,54.07
2018-01-07T09:49:27.346Z,53.00
2018-01-07T09:50:27.346Z,49.68
2018-01-07T09:51:27.356Z,48.82
2018-01-07T09:52:27.368Z,48.16
2018-01-07T09:53:27.373Z,48.25
2018-01-07T09:54:27.389Z,48.32
2018-01-07T09:55:27.395Z,48.32
2018-01-07T09:56:27.403Z,49.74
2018-01-07T09:57:27.423Z,51.64
2018-01-07T09:58:27.433Z,52.37
2018-01-07T09:59:27.442Z,53.89
2018-01-07T10:00:27.445Z,54.27
2018-01-07T10:01:27.493Z,54.97
2018-01-07T10:02:27.475Z,54.21
2018-01-07T10:03:27.476Z,53.45
2018-01-07T10:04:27.492Z,51.93
2018-01-07T10:05:27.499Z,50.31
2018-01-07T10:06:27.517Z,50.29
2018-01-07T10:07:27.520Z,52.00
2018-01-07T10:08:27.539Z,52.19
2018-01-07T10:09:27.549Z,52.40
2018-01-07T10:10:27.566Z,52.59
2018-01-07T10:11:27.569Z,52.50
2018-01-07T10:12:27.581Z,52.50
2018-01-07T10:13:27.595Z,52.50
2018-01-07T10:14:27.599Z,53.85
2018-01-07T10:15:27.620Z,53.57
2018-01-07T10:16:27.628Z,52.62
2018-01-07T10:17:27.668Z,53.28
2018-01-07T10:18:27.646Z,52.05
2018-01-07T10:19:27.653Z,51.48
2018-01-07T10:20:27.671Z,51.29
2018-01-07T10:21:27.680Z,51.39
2018-01-07T10:22:27.686Z,51.10
2018-01-07T10:23:27.703Z,48.63
2018-01-07T10:24:27.713Z,48.72
2018-01-07T10:25:27.724Z,48.35
2018-01-07T10:26:27.731Z,50.41
2018-01-07T10:27:28.757Z,52.02
2018-01-07T10:28:27.766Z,53.92
2018-01-07T10:29:27.770Z,55.44
2018-01-07T10:30:27.790Z,55.54
2018-01-07T10:31:27.812Z,54.68
2018-01-07T10:32:27.808Z,54.39
2018-01-07T10:33:27.821Z,54.61
2018-01-07T10:34:27.831Z,54.90
2018-01-07T10:35:27.840Z,53.97
2018-01-07T10:36:27.850Z,51.06
2018-01-07T10:37:27.856Z,48.30
2018-01-07T10:38:27.869Z,47.18
2018-01-07T10:39:27.880Z,47.49
2018-01-07T10:40:27.908Z,44.64
2018-01-07T10:41:27.903Z,45.87
2018-01-07T10:42:27.923Z,47.09
2018-01-07T10:43:27.928Z,48.73
2018-01-07T10:44:27.940Z,47.66
2018-01-07T10:45:27.951Z,47.75
2018-01-07T10:46:27.970Z,49.65
2018-01-07T10:47:27.984Z,48.90
2018-01-07T10:48:27.999Z,48.42
2018-01-07T10:49:28.015Z,47.47
2018-01-07T10:50:28.027Z,45.68
2018-01-07T10:51:28.030Z,47.28
2018-01-07T10:52:28.049Z,49.27
2018-01-07T10:53:28.062Z,50.70
2018-01-07T10:54:28.075Z,50.99
2018-01-07T10:55:28.078Z,50.44
2018-01-07T10:56:28.099Z,49.87
2018-01-07T10:57:28.113Z,47.78
2018-01-07T10:58:28.125Z,48.16
2018-01-07T10:59:28.136Z,48.85
2018-01-07T11:00:28.149Z,48.27
2018-01-07T11:01:28.158Z,46.94
2018-01-07T11:02:28.175Z,46.30
2018-01-07T11:03:28.188Z,45.99
2018-01-07T11:04:28.205Z,46.09
2018-01-07T11:05:28.215Z,47.49
2018-01-07T11:06:28.243Z,47.66
2018-01-07T11:07:28.244Z,49.68
2018-01-07T11:08:28.256Z,47.97
2018-01-07T11:09:28.271Z,48.85
2018-01-07T11:10:28.282Z,48.21
2018-01-07T11:11:28.294Z,47.25
2018-01-07T11:12:28.315Z,45.44
2018-01-07T11:13:28.335Z,45.63
2018-01-07T11:14:28.342Z,46.66
2018-01-07T11:15:28.357Z,47.58
2018-01-07T11:16:28.366Z,48.03
2018-01-07T11:17:28.380Z,49.85
2018-01-07T11:18:28.395Z,51.43
2018-01-07T11:19:28.418Z,52.64
2018-01-07T11:20:28.433Z,54.55
2018-01-07T11:21:28.442Z,54.10
2018-01-07T11:22:28.471Z,54.29
2018-01-07T11:23:28.466Z,52.89
2018-01-07T11:24:28.486Z,52.34
2018-01-07T11:25:28.496Z,50.46
2018-01-07T11:26:28.508Z,48.97
2018-01-07T11:27:28.524Z,48.13
2018-01-07T11:28:28.549Z,46.15
2018-01-07T11:29:28.553Z,43.68
2018-01-07T11:30:28.567Z,42.08
2018-01-07T11:31:28.584Z,40.64
2018-01-07T11:32:28.601Z,40.28
2018-01-07T11:33:28.640Z,39.61
2018-01-07T11:34:28.636Z,39.25
2018-01-07T11:35:28.641Z,39.08
2018-01-07T11:36:28.664Z,36.96
2018-01-07T11:37:28.681Z,40.51
2018-01-07T11:38:28.695Z,43.23
2018-01-07T11:39:28.720Z,47.73
2018-01-07T11:40:28.739Z,50.70
2018-01-07T11:41:28.752Z,50.99
2018-01-07T11:42:28.762Z,52.13
2018-01-07T11:43:28.780Z,52.44
2018-01-07T11:44:28.781Z,50.94
2018-01-07T11:45:28.801Z,49.82
2018-01-07T11:46:28.813Z,48.39
2018-01-07T11:47:28.833Z,46.06
2018-01-07T11:48:28.849Z,42.05
2018-01-07T11:49:28.868Z,43.32
2018-01-07T11:50:28.880Z,41.10
2018-01-07T11:51:28.893Z,42.03
2018-01-07T11:52:28.908Z,44.96
2018-01-07T11:53:28.925Z,46.09
2018-01-07T11:54:28.942Z,47.66
2018-01-07T11:55:28.968Z,49.65
2018-01-07T11:56:28.973Z,50.06
2018-01-07T11:57:28.990Z,49.68
2018-01-07T11:58:29.000Z,49.71
2018-01-07T11:59:29.020Z,48.47
2018-01-07T12:00:29.041Z,48.32
2018-01-07T12:01:29.050Z,50.48
2018-01-07T12:02:29.067Z,53.53
2018-01-07T12:03:29.087Z,54.36
2018-01-07T12:04:29.101Z,55.11
2018-01-07T12:05:29.117Z,56.32
2018-01-07T12:06:29.139Z,58.13
2018-01-07T12:07:29.154Z,59.62
2018-01-07T12:08:29.181Z,60.47
2018-01-07T12:09:29.184Z,61.71
2018-01-07T12:10:29.196Z,61.61
2018-01-07T12:11:29.206Z,61.99
2018-01-07T12:12:29.220Z,62.75
2018-01-07T12:13:29.234Z,62.66
2018-01-07T12:14:29.251Z,61.36
2018-01-07T12:15:29.259Z,59.74
2018-01-07T12:16:29.284Z,59.77
2018-01-07T12:17:29.285Z,57.21
2018-01-07T12:18:29.305Z,55.78
2018-01-07T12:19:29.322Z,55.81
2018-01-07T12:20:29.336Z,55.71
2018-01-07T12:21:29.348Z,56.10
2018-01-07T12:22:29.366Z,56.10
2018-01-07T12:23:29.372Z,55.46
2018-01-07T12:24:29.395Z,54.69
2018-01-07T12:25:29.409Z,54.03
2018-01-07T12:26:29.419Z,52.63
2018-01-07T12:27:29.433Z,51.39
2018-01-07T12:28:29.445Z,49.96
2018-01-07T12:29:29.470Z,50.06
2018-01-07T12:30:29.491Z,51.97
2018-01-07T12:31:29.492Z,54.22
2018-01-07T12:32:29.556Z,53.17
2018-01-07T12:33:29.521Z,53.63
2018-01-07T12:34:29.527Z,54.26
2018-01-07T12:35:29.571Z,56.26
2018-01-07T12:36:29.565Z,55.78
2018-01-07T12:37:29.573Z,56.83
2018-01-07T12:38:29.644Z,56.92
2018-01-07T12:39:29.603Z,57.40
2018-01-07T12:40:29.663Z,57.62
2018-01-07T12:41:29.630Z,57.33
2018-01-07T12:42:29.644Z,55.74
2018-01-07T12:43:29.660Z,54.63
2018-01-07T12:44:29.670Z,53.65
2018-01-07T12:45:29.685Z,54.32
2018-01-07T12:46:29.697Z,54.22
2018-01-07T12:47:29.719Z,53.55
2018-01-07T12:48:29.733Z,54.32
2018-01-07T12:49:29.760Z,56.10
2018-01-07T12:50:29.760Z,57.40
2018-01-07T12:51:29.776Z,57.30
2018-01-07T12:52:29.839Z,58.32
2018-01-07T12:53:29.804Z,59.55